22:26
Airports
History
Links
Donate
Help keep this website running!
PayPal
Bitcoin
This page is community maintained. The information is intended for PC simulator navigation or reference.
Always use approved charts for navigation.
CYIO
POND INLET
POND INLET (CYIO)
Pond Inlet, Nunavut, Canada
4
Lat/Lng:72° 41' 0" N / 77° 57' 59.99" W
72.683334 / -77.966664
Elevation:181'ft / 55mMSL
ID / ICAO:CYIO
Runways:1
Longest:02T-20T
Gravel 1,207m / 3,960ft
METAR22:00 GMT 2017-09-19
Altimeter: 30.20
Visibility: 40.0 statute miles
Wind: 2 knots (from VRB°)
Temp: 0°c / 32°f
Humidity: %

METAR: CYIO 192200Z VRB02KT 40SM FEW040 FEW090 FEW250 M00/M06 A3020 RMK SC1AC1CI1 SC TR AC TR CI TR SLP233

(Powered by phpweather)
Airport Radio Frequencies
AWOS: 128.3
Nearby VORs <50NM
Nearby NDBs
Runway 02T / 20T
Dimensions:1207 x 30.5m 3960' x 100'ft
Surface:Gravel
Edge Lights:Medium intensity
Runway 02T [A]Runway 20T [B]
Heading:022°TH 202°TH
Lat:
Lng:
72° 40' 41.9"N
77° 58' 25.79"W
72° 41' 18.1"N
77° 57' 34.19"W
TDZ:Yes, lighted
User Notes and Comments
72° 41' 0" N / 77° 57' 59.99" W
Distance To
Airport ID:
Nearby Airports
4 NANISIVIK 137.0 NM
CYSR W 278°
4 Arctic Bay 145.6 NM
CJX7 W 278°
4 Igloolik 244.9 NM
CYGT SSW 200°
4 CLYDE RIVER 255.6 NM
CYCY ( WX ) SE 126°
4 Grise Fjord 273.9 NM
CYGZ NNW 340°
4 Hall Beach 280.0 NM
CYUX ( WX ) SSW 195°
(R) Thule Air Base 314.9 NM
BGTL NNE 32°
VFR Chart
Flight Planning at SkyVector.com